Time;durP1;ratioP1;P1;durP2;ratioP2;P2;SDS_P1;SDS_P2;PMS_P1;PMS_P2;Temp;Humidity;BMP_temperature;BMP_pressure;BME280_temperature;BME280_humidity;BME280_pressure;Samples;Min_cycle;Max_cycle;Signal;HPM_P1;HPM_P2
2021/03/15 00:01:09;;;;;;;42.62;28.07;;;;;;;4.73;94.38;98965.00;1770685;79;21169;-44
2021/03/15 00:03:38;;;;;;;41.10;27.48;;;;;;;4.75;94.36;98960.09;1773444;79;21638;-45
2021/03/15 00:09:03;;;;;;;45.00;28.62;;;;;;;4.79;94.36;98975.05;1750678;79;23397;-44
2021/03/15 00:11:31;;;;;;;47.20;29.87;;;;;;;4.71;94.38;98976.23;1712427;82;20981;-46
2021/03/15 00:14:01;;;;;;;44.73;30.00;;;;;;;4.70;94.40;98969.15;1685316;83;21374;-45
2021/03/15 00:16:29;;;;;;;48.85;28.50;;;;;;;4.69;94.41;98974.56;1681676;84;21195;-51
2021/03/15 00:18:57;;;;;;;49.93;30.80;;;;;;;4.70;94.42;98978.50;1688123;83;21087;-50
2021/03/15 00:21:25;;;;;;;49.93;30.65;;;;;;;4.69;94.44;98974.09;1686038;84;20949;-49
2021/03/15 00:23:53;;;;;;;43.55;28.52;;;;;;;4.68;94.45;98975.00;1687115;83;21005;-51
2021/03/15 00:26:21;;;;;;;46.00;29.48;;;;;;;4.69;94.44;98986.11;1685708;83;21388;-51
2021/03/15 00:28:50;;;;;;;46.92;29.72;;;;;;;4.69;94.43;98986.11;1685712;83;21539;-51
2021/03/15 00:31:20;;;;;;;43.78;29.60;;;;;;;4.70;94.41;98982.50;1683831;83;21053;-50
2021/03/15 00:33:49;;;;;;;46.50;29.42;;;;;;;4.71;94.38;98978.89;1687143;84;21553;-50
2021/03/15 00:36:19;;;;;;;47.20;29.00;;;;;;;4.72;94.34;98977.95;1683679;83;21136;-50
2021/03/15 00:38:47;;;;;;;46.08;30.27;;;;;;;4.72;94.28;98977.95;1686375;84;21200;-51
2021/03/15 00:41:15;;;;;;;50.03;31.87;;;;;;;4.71;94.25;98974.89;1685007;84;21171;-50
2021/03/15 00:43:43;;;;;;;46.55;29.48;;;;;;;4.73;94.32;98977.02;1684836;84;21044;-49
2021/03/15 00:46:11;;;;;;;43.58;29.27;;;;;;;4.78;94.24;98974.17;1688663;84;21107;-54
2021/03/15 00:48:39;;;;;;;46.13;29.37;;;;;;;4.78;94.13;98981.32;1683386;83;21112;-56
2021/03/15 00:51:07;;;;;;;45.73;29.32;;;;;;;4.78;94.13;98983.99;1680602;82;21484;-49
2021/03/15 00:53:35;;;;;;;47.43;30.08;;;;;;;4.81;94.13;98986.56;1673027;84;21163;-50
2021/03/15 00:56:03;;;;;;;48.02;29.95;;;;;;;4.82;94.01;98989.63;1689182;82;21167;-50
2021/03/15 00:58:32;;;;;;;50.33;30.37;;;;;;;4.82;93.95;98992.30;1681907;84;21015;-50
2021/03/15 01:01:00;;;;;;;47.55;29.85;;;;;;;4.83;93.97;98988.69;1688986;83;21122;-49
2021/03/15 01:03:53;;;;;;;48.95;30.70;;;;;;;4.89;93.90;98981.77;1842327;76;23380;-49
2021/03/15 01:06:23;;;;;;;52.03;30.32;;;;;;;4.82;93.84;98977.61;1820627;77;20985;-47
2021/03/15 01:09:01;;;;;;;45.50;30.27;;;;;;;4.88;93.78;98980.03;1806595;76;22808;-48
2021/03/15 01:11:32;;;;;;;45.65;28.47;;;;;;;4.82;93.73;98975.80;1761985;77;21273;-51
2021/03/15 01:14:02;;;;;;;48.60;29.82;;;;;;;4.82;93.70;98969.59;1741244;80;21191;-49
2021/03/15 01:16:32;;;;;;;48.45;30.15;;;;;;;4.78;93.71;98974.64;1735500;81;21565;-50
2021/03/15 01:19:00;;;;;;;56.42;31.40;;;;;;;4.76;93.75;98967.17;1738039;80;21026;-49
2021/03/15 01:21:28;;;;;;;52.03;32.33;;;;;;;4.73;93.75;98969.01;1741062;80;21549;-50
2021/03/15 01:23:58;;;;;;;49.73;30.45;;;;;;;4.72;93.83;98965.94;1735397;80;21021;-49
2021/03/15 01:26:26;;;;;;;51.53;32.00;;;;;;;4.70;93.94;98955.80;1734796;81;22073;-50
2021/03/15 01:28:54;;;;;;;53.05;31.05;;;;;;;4.73;93.99;98961.00;1732140;81;21574;-50
2021/03/15 01:31:22;;;;;;;47.95;31.17;;;;;;;4.72;93.94;98951.25;1734499;80;21026;-52
2021/03/15 01:33:50;;;;;;;51.15;30.72;;;;;;;4.72;93.97;98958.40;1735769;81;20982;-50
2021/03/15 01:36:18;;;;;;;51.37;31.62;;;;;;;4.70;94.01;98958.47;1740012;80;21434;-49
2021/03/15 01:38:45;;;;;;;51.05;32.30;;;;;;;4.69;94.03;98954.06;1735023;80;21325;-50
2021/03/15 01:41:13;;;;;;;50.15;31.82;;;;;;;4.67;94.10;98949.23;1737361;80;21152;-49
2021/03/15 01:43:42;;;;;;;54.90;33.10;;;;;;;4.66;94.14;98948.83;1739362;80;21005;-50
2021/03/15 01:46:09;;;;;;;55.90;33.23;;;;;;;4.65;94.22;98944.42;1738044;81;21574;-50
2021/03/15 01:48:37;;;;;;;55.20;33.70;;;;;;;4.64;94.29;98937.81;1743518;80;21112;-50
2021/03/15 01:51:06;;;;;;;56.25;34.58;;;;;;;4.62;94.39;98940.99;1735358;81;21327;-50
2021/03/15 01:53:34;;;;;;;57.35;34.63;;;;;;;4.60;94.58;98954.41;1747094;80;20974;-51
2021/03/15 01:56:02;;;;;;;60.00;34.67;;;;;;;4.58;94.74;98956.28;1737100;80;21558;-50
2021/03/15 01:58:30;;;;;;;51.77;34.23;;;;;;;4.59;94.85;98963.36;1734942;80;21017;-50
2021/03/15 02:00:58;;;;;;;64.97;38.40;;;;;;;4.59;94.96;98959.36;1732249;81;21338;-46
2021/03/15 02:03:26;;;;;;;68.72;40.78;;;;;;;4.58;95.07;98952.72;1746470;80;22257;-47
2021/03/15 02:05:54;;;;;;;63.92;38.60;;;;;;;4.58;95.13;98954.05;1735301;80;21191;-46
2021/03/15 02:08:22;;;;;;;61.25;37.63;;;;;;;4.59;95.14;98963.83;1747276;80;21033;-46
2021/03/15 02:10:50;;;;;;;61.88;38.73;;;;;;;4.60;95.18;98960.22;1748434;81;21609;-46
2021/03/15 02:13:40;;;;;;;64.72;38.25;;;;;;;4.60;95.17;98962.42;1749944;81;21695;-47
2021/03/15 02:16:22;;;;;;;65.15;38.50;;;;;;;4.61;95.18;98961.48;1748524;81;21368;-46
2021/03/15 02:19:32;;;;;;;60.15;39.13;;;;;;;4.62;95.19;98965.89;1749751;81;21010;-46
2021/03/15 02:22:24;;;;;;;66.35;40.40;;;;;;;4.61;95.19;98969.97;1750854;81;21014;-47
2021/03/15 02:25:23;;;;;;;58.83;36.85;;;;;;;4.60;95.25;98973.11;1746861;81;21010;-46
2021/03/15 02:28:29;;;;;;;56.80;37.13;;;;;;;4.63;95.31;98967.62;1772904;78;22846;-46
2021/03/15 02:31:02;;;;;;;61.15;36.63;;;;;;;4.56;95.37;98978.62;1771257;80;21168;-46
2021/03/15 02:34:07;;;;;;;58.45;37.23;;;;;;;4.54;95.44;98974.68;1772656;80;21585;-46
2021/03/15 02:36:39;;;;;;;63.70;36.42;;;;;;;4.55;95.46;98973.74;1771471;80;21005;-44
2021/03/15 02:39:10;;;;;;;56.50;35.03;;;;;;;4.55;95.46;98971.08;1773363;80;20951;-46
2021/03/15 02:41:46;;;;;;;61.95;36.58;;;;;;;4.59;95.54;98975.38;1805081;76;23526;-46
2021/03/15 02:44:14;;;;;;;58.02;36.35;;;;;;;4.54;95.58;98981.35;1805866;79;20974;-45
2021/03/15 02:46:44;;;;;;;59.75;36.05;;;;;;;4.55;95.61;98969.73;1775211;79;21415;-45
2021/03/15 02:49:14;;;;;;;55.90;33.90;;;;;;;4.56;95.64;98963.46;1805882;79;21006;-47
2021/03/15 02:51:42;;;;;;;54.42;33.90;;;;;;;4.56;95.66;98970.61;1805760;77;20978;-46
2021/03/15 02:54:12;;;;;;;59.08;35.40;;;;;;;4.55;95.66;98963.06;1805700;79;21583;-46
2021/03/15 02:56:43;;;;;;;61.75;35.13;;;;;;;4.55;95.72;98958.19;1806235;78;20979;-46
2021/03/15 02:59:11;;;;;;;68.95;37.50;;;;;;;4.52;95.86;98943.14;1774860;79;21329;-46
2021/03/15 03:01:39;;;;;;;67.90;37.63;;;;;;;4.49;96.02;98944.62;1801729;77;20985;-46
2021/03/15 03:04:08;;;;;;;65.12;38.30;;;;;;;4.47;96.29;98943.78;1801221;79;20977;-46
2021/03/15 03:06:38;;;;;;;68.97;39.42;;;;;;;4.45;96.46;98942.98;1802658;77;21610;-45
2021/03/15 03:09:07;;;;;;;74.90;40.20;;;;;;;4.45;96.63;98941.66;1805595;78;21515;-45
2021/03/15 03:11:36;;;;;;;72.55;40.63;;;;;;;4.44;96.72;98935.91;1802756;77;21379;-46
2021/03/15 03:14:07;;;;;;;68.62;38.02;;;;;;;4.45;96.79;98936.31;1799524;78;21562;-46
2021/03/15 03:16:43;;;;;;;71.60;40.45;;;;;;;4.48;96.97;98929.53;1824229;77;23270;-46
2021/03/15 03:19:15;;;;;;;74.30;41.02;;;;;;;4.41;97.20;98932.02;1793537;79;20956;-47
2021/03/15 03:21:43;;;;;;;68.22;38.83;;;;;;;4.39;97.42;98929.41;1792840;79;22215;-45
2021/03/15 03:24:11;;;;;;;80.92;40.73;;;;;;;4.39;97.72;98923.20;1739333;79;21590;-45
2021/03/15 03:26:39;;;;;;;78.87;42.80;;;;;;;4.38;97.98;98928.14;1802993;79;21285;-44
2021/03/15 03:29:07;;;;;;;78.67;41.37;;;;;;;4.36;98.10;98928.19;1790509;79;21602;-45
2021/03/15 03:31:37;;;;;;;83.00;43.35;;;;;;;4.37;98.24;98935.75;1784713;79;20935;-46
2021/03/15 03:34:05;;;;;;;85.85;44.77;;;;;;;4.39;98.26;98941.89;1739650;79;21543;-45
2021/03/15 03:36:34;;;;;;;79.47;41.90;;;;;;;4.38;98.36;98944.16;1742009;79;21102;-45
2021/03/15 03:39:06;;;;;;;74.70;41.20;;;;;;;4.38;98.52;98956.17;1782433;79;20999;-51
2021/03/15 03:41:34;;;;;;;81.50;41.00;;;;;;;4.38;98.68;98958.84;1785205;79;21137;-46
2021/03/15 03:44:08;;;;;;;75.57;40.88;;;;;;;4.39;98.78;98957.91;1790386;79;21540;-45
2021/03/15 03:46:36;;;;;;;81.57;42.67;;;;;;;4.40;98.89;98952.97;1790425;79;21369;-46
2021/03/15 03:49:04;;;;;;;82.95;43.20;;;;;;;4.39;98.94;98941.89;1784149;79;21106;-46
2021/03/15 03:51:39;;;;;;;79.72;43.30;;;;;;;4.38;99.03;98945.50;1787080;79;21126;-45
2021/03/15 03:54:18;;;;;;;84.50;42.30;;;;;;;4.44;99.20;98949.27;1821208;76;22707;-46
2021/03/15 03:56:53;;;;;;;91.02;45.20;;;;;;;4.38;99.34;98956.17;1776215;78;21378;-46
2021/03/15 03:59:22;;;;;;;89.45;44.67;;;;;;;4.36;99.49;98958.88;1769111;78;22181;-46
2021/03/15 04:01:51;;;;;;;88.17;45.08;;;;;;;4.34;99.67;98968.75;1761038;79;21020;-46
2021/03/15 04:04:22;;;;;;;90.45;44.25;;;;;;;4.33;99.85;98974.16;1756978;79;21581;-46
2021/03/15 04:06:52;;;;;;;93.58;45.03;;;;;;;4.31;100.00;98970.66;1748733;79;21188;-49
2021/03/15 04:09:34;;;;;;;91.10;46.08;;;;;;;4.32;100.00;98977.30;1757832;79;21576;-47
2021/03/15 04:12:07;;;;;;;;;;;;;;;4.32;100.00;98975.09;1759541;79;22271;-45
2021/03/15 04:14:45;;;;;;;90.00;44.40;;;;;;;4.31;100.00;98973.33;1757438;79;20278;-46
2021/03/15 04:17:17;;;;;;;95.50;46.75;;;;;;;4.28;100.00;98973.46;1758830;78;21704;-47
2021/03/15 04:19:55;;;;;;;95.25;48.05;;;;;;;4.27;100.00;98985.06;1757226;79;21100;-47
2021/03/15 04:22:23;;;;;;;99.32;47.88;;;;;;;4.26;100.00;98985.97;1765010;78;21526;-46
2021/03/15 04:24:51;;;;;;;96.17;48.58;;;;;;;4.24;100.00;98986.50;1765302;78;21271;-53
2021/03/15 04:27:19;;;;;;;96.57;47.67;;;;;;;4.22;100.00;98995.04;1755502;79;21227;-45
2021/03/15 04:29:47;;;;;;;85.67;44.27;;;;;;;4.19;100.00;98995.53;1758622;79;21360;-44
2021/03/15 04:32:15;;;;;;;98.10;49.03;;;;;;;4.19;100.00;98996.00;1757285;79;21088;-46
2021/03/15 04:34:44;;;;;;;94.07;46.92;;;;;;;4.18;100.00;99000.48;1766733;79;21479;-45
2021/03/15 04:37:11;;;;;;;95.53;48.08;;;;;;;4.17;100.00;98997.41;1756459;79;22388;-46
2021/03/15 04:39:39;;;;;;;95.17;49.50;;;;;;;4.15;100.00;99002.37;1759546;79;20993;-48
2021/03/15 04:42:08;;;;;;;92.35;47.90;;;;;;;4.15;100.00;99006.38;1755291;79;21151;-46
2021/03/15 04:47:13;;;;;;;103.12;49.23;;;;;;;4.20;100.00;98993.27;1794076;76;23342;-46
2021/03/15 04:49:42;;;;;;;103.80;51.35;;;;;;;4.15;100.00;98999.23;1756272;79;21131;-46
2021/03/15 04:52:11;;;;;;;99.83;50.92;;;;;;;4.17;100.00;99005.41;1757173;79;21374;-45
2021/03/15 04:54:39;;;;;;;96.97;50.70;;;;;;;4.18;100.00;99013.81;1760325;79;20965;-46
2021/03/15 04:57:07;;;;;;;106.05;51.77;;;;;;;4.17;100.00;99020.08;1756644;79;21140;-45
2021/03/15 04:59:35;;;;;;;102.15;50.70;;;;;;;4.17;100.00;99029.89;1728526;79;20961;-45
2021/03/15 05:02:04;;;;;;;110.48;52.80;;;;;;;4.17;100.00;99025.42;1746809;79;21522;-46
2021/03/15 05:04:32;;;;;;;102.45;50.85;;;;;;;4.14;100.00;99024.19;1738125;79;21586;-46
2021/03/15 05:07:00;;;;;;;96.80;50.10;;;;;;;4.13;100.00;99028.25;1765148;78;21075;-46
2021/03/15 05:09:30;;;;;;;103.83;52.53;;;;;;;4.14;100.00;99031.32;1765723;79;21644;-46
2021/03/15 05:11:59;;;;;;;103.10;49.98;;;;;;;4.14;100.00;99024.66;1759380;78;21012;-46
2021/03/15 05:14:29;;;;;;;97.25;49.30;;;;;;;4.13;100.00;99027.78;1770588;79;21162;-46
2021/03/15 05:16:57;;;;;;;99.15;50.23;;;;;;;4.12;100.00;99027.38;1769048;78;21138;-46
2021/03/15 05:19:25;;;;;;;98.00;47.05;;;;;;;4.12;100.00;99032.72;1761566;79;21024;-46
2021/03/15 05:21:53;;;;;;;102.58;49.80;;;;;;;4.14;100.00;99034.86;1742069;79;21116;-45
2021/03/15 05:24:22;;;;;;;94.15;47.78;;;;;;;4.14;100.00;99030.86;1768000;79;21059;-47
2021/03/15 05:26:49;;;;;;;92.22;50.73;;;;;;;4.15;100.00;99033.92;1771872;79;20973;-46
2021/03/15 05:29:17;;;;;;;98.97;51.23;;;;;;;4.17;100.00;99032.09;1712876;80;21398;-46
2021/03/15 05:31:46;;;;;;;90.00;47.65;;;;;;;4.20;100.00;99029.30;1762663;79;21100;-46
2021/03/15 05:34:15;;;;;;;92.90;49.90;;;;;;;4.24;100.00;99033.20;1766972;79;21156;-47
2021/03/15 05:36:42;;;;;;;95.97;49.50;;;;;;;4.27;100.00;99027.77;1757544;79;21593;-46
2021/03/15 05:39:10;;;;;;;101.47;50.23;;;;;;;4.28;100.00;99034.38;1733686;79;21442;-46
2021/03/15 05:42:00;;;;;;;96.02;48.45;;;;;;;4.31;100.00;99036.05;1748161;79;21441;-47
2021/03/15 05:45:15;;;;;;;103.17;51.65;;;;;;;4.36;100.00;99040.75;1766709;79;20969;-47
2021/03/15 05:48:07;;;;;;;98.30;50.60;;;;;;;4.39;100.00;99036.19;1761960;79;21112;-46
2021/03/15 05:51:05;;;;;;;102.00;51.30;;;;;;;4.50;100.00;99030.45;1818880;76;22754;-47
2021/03/15 05:54:04;;;;;;;97.67;50.95;;;;;;;4.49;100.00;99032.72;1758873;78;21111;-44
2021/03/15 05:56:43;;;;;;;102.62;50.95;;;;;;;4.54;100.00;99042.77;1767688;79;21397;-44
2021/03/15 05:59:53;;;;;;;99.42;51.83;;;;;;;4.59;100.00;99042.13;1767109;79;21018;-46
2021/03/15 06:02:54;;;;;;;103.87;52.35;;;;;;;4.63;100.00;99042.39;1765343;78;21523;-44
2021/03/15 06:05:28;;;;;;;100.60;49.90;;;;;;;4.66;100.00;99048.97;1765781;79;21002;-45
2021/03/15 06:08:13;;;;;;;99.85;49.90;;;;;;;4.72;100.00;99046.06;1769610;78;21033;-46
2021/03/15 06:11:12;;;;;;;101.22;50.55;;;;;;;4.77;100.00;99049.03;1766873;79;24736;-47
2021/03/15 06:13:40;;;;;;;103.20;51.68;;;;;;;4.80;100.00;99055.14;1766600;79;20942;-46
2021/03/15 06:16:09;;;;;;;97.45;49.63;;;;;;;4.84;100.00;99056.73;1766496;79;21008;-45
2021/03/15 06:18:41;;;;;;;98.50;50.85;;;;;;;4.86;100.00;99057.58;1769057;79;21136;-45
2021/03/15 06:21:12;;;;;;;91.87;49.45;;;;;;;4.89;100.00;99061.91;1763799;79;21148;-45
2021/03/15 06:23:41;;;;;;;104.10;51.58;;;;;;;4.91;100.00;99065.41;1760579;79;21149;-45
2021/03/15 06:26:09;;;;;;;96.37;48.65;;;;;;;4.92;100.00;99064.48;1763859;79;21651;-45
2021/03/15 06:28:37;;;;;;;97.40;49.35;;;;;;;4.92;100.00;99064.48;1762013;79;21166;-45
2021/03/15 06:31:05;;;;;;;104.27;51.53;;;;;;;4.90;100.00;99063.65;1760597;79;21100;-45
2021/03/15 06:33:33;;;;;;;96.90;52.30;;;;;;;4.89;100.00;99056.57;1763449;79;21553;-45
2021/03/15 06:36:03;;;;;;;106.05;51.83;;;;;;;4.92;100.00;99057.80;1762705;78;21709;-46
2021/03/15 06:38:32;;;;;;;;;;;;;;;4.93;100.00;99050.19;1768502;79;21124;-46
2021/03/15 06:41:02;;;;;;;96.20;48.78;;;;;;;4.94;100.00;99053.25;1760375;80;20528;-47
2021/03/15 06:43:30;;;;;;;97.60;51.88;;;;;;;4.94;100.00;99061.27;1729266;80;21175;-46
2021/03/15 06:45:58;;;;;;;94.05;50.90;;;;;;;4.94;100.00;99054.59;1762004;78;21660;-47
2021/03/15 06:48:27;;;;;;;98.45;51.15;;;;;;;4.97;100.00;99054.48;1765068;79;21723;-46
2021/03/15 06:50:56;;;;;;;101.35;53.30;;;;;;;5.00;100.00;99056.55;1758711;79;20969;-46
2021/03/15 06:53:24;;;;;;;95.30;50.05;;;;;;;5.04;100.00;99060.45;1761325;79;20990;-47
2021/03/15 06:55:53;;;;;;;95.67;49.85;;;;;;;5.05;100.00;99055.04;1767942;79;20981;-47
2021/03/15 06:58:27;;;;;;;97.12;50.63;;;;;;;5.08;100.00;99057.61;1763834;79;21090;-46
2021/03/15 07:01:12;;;;;;;92.62;49.53;;;;;;;5.11;100.00;99056.13;1755653;79;22089;-48
2021/03/15 07:03:40;;;;;;;91.72;50.05;;;;;;;5.14;100.00;99062.70;1760323;79;21037;-46
2021/03/15 07:06:08;;;;;;;96.47;52.10;;;;;;;5.19;100.00;99066.07;1762531;78;21159;-47
2021/03/15 07:08:37;;;;;;;99.58;52.75;;;;;;;5.25;100.00;99072.98;1760366;78;21662;-51
2021/03/15 07:11:24;;;;;;;104.95;56.30;;;;;;;5.29;100.00;99065.72;1755513;79;21146;-51
2021/03/15 07:13:53;;;;;;;106.35;55.90;;;;;;;5.32;99.91;99073.59;1757215;79;21361;-53
2021/03/15 07:16:28;;;;;;;112.60;58.92;;;;;;;5.34;99.77;99069.08;1765254;79;22335;-54
2021/03/15 07:19:03;;;;;;;109.37;57.17;;;;;;;5.36;99.59;99067.20;1758977;79;21119;-51
2021/03/15 07:21:37;;;;;;;115.03;58.68;;;;;;;5.41;99.49;99070.56;1764932;79;21112;-48
2021/03/15 07:24:11;;;;;;;116.30;61.05;;;;;;;5.42;99.26;99061.61;1759650;79;21021;-45
2021/03/15 07:26:44;;;;;;;109.22;57.48;;;;;;;5.41;99.02;99058.06;1754391;79;22640;-50
2021/03/15 07:29:18;;;;;;;110.92;59.23;;;;;;;5.41;98.88;99051.38;1770031;79;21538;-45
2021/03/15 07:31:54;;;;;;;115.92;60.52;;;;;;;5.46;98.92;99040.03;1827130;75;23321;-46
2021/03/15 07:34:22;;;;;;;116.55;60.30;;;;;;;5.45;98.78;99045.45;1758071;79;21073;-46
2021/03/15 07:36:57;;;;;;;129.47;61.15;;;;;;;5.47;98.70;99043.57;1760271;79;22064;-45
2021/03/15 07:39:28;;;;;;;135.00;61.88;;;;;;;5.52;98.52;99037.57;1762583;79;21077;-46
2021/03/15 07:41:57;;;;;;;140.40;64.70;;;;;;;5.55;98.37;99038.80;1757619;79;21020;-45
2021/03/15 07:44:29;;;;;;;140.35;65.72;;;;;;;5.59;98.11;99037.71;1761424;79;21358;-45
2021/03/15 07:47:00;;;;;;;142.03;68.67;;;;;;;5.66;98.01;99044.56;1766586;79;21120;-48
2021/03/15 07:49:35;;;;;;;143.78;71.67;;;;;;;5.69;97.66;99044.42;1760493;79;21779;-46
2021/03/15 07:52:05;;;;;;;148.90;73.62;;;;;;;5.73;97.67;99047.84;1757593;79;21029;-48
2021/03/15 07:54:35;;;;;;;153.70;77.78;;;;;;;5.81;97.44;99052.89;1761023;79;20993;-47
2021/03/15 07:57:24;;;;;;;137.62;71.55;;;;;;;5.85;97.06;99054.48;1766605;79;21108;-47
2021/03/15 08:00:00;;;;;;;139.88;79.32;;;;;;;5.91;96.64;99054.22;1836329;74;28438;-48
2021/03/15 08:02:33;;;;;;;140.52;72.80;;;;;;;5.87;96.27;99059.31;1826108;76;21818;-48
2021/03/15 08:05:01;;;;;;;148.82;70.67;;;;;;;5.85;96.07;99054.48;1824916;77;21251;-49
2021/03/15 08:07:31;;;;;;;144.93;69.53;;;;;;;5.82;96.16;99051.95;1832597;76;20958;-49
2021/03/15 08:10:00;;;;;;;144.95;68.50;;;;;;;5.81;96.09;99046.20;1828435;76;20977;-48
2021/03/15 08:12:37;;;;;;;167.70;71.75;;;;;;;5.81;96.03;99051.55;1835041;76;20922;-48
2021/03/15 08:15:08;;;;;;;170.90;69.60;;;;;;;5.78;95.98;99048.05;1834292;77;20950;-49
2021/03/15 08:17:38;;;;;;;161.80;70.85;;;;;;;5.78;96.01;99046.72;1834253;76;21247;-47
2021/03/15 08:20:08;;;;;;;147.50;67.47;;;;;;;5.77;96.02;99053.01;1830405;76;21021;-48
2021/03/15 08:22:39;;;;;;;146.13;69.42;;;;;;;5.78;95.95;99054.74;1837764;76;21527;-48
2021/03/15 08:25:09;;;;;;;137.70;66.82;;;;;;;5.75;95.95;99048.20;1833151;76;20977;-48
2021/03/15 08:27:41;;;;;;;149.42;67.95;;;;;;;5.74;95.98;99049.11;1830336;76;21108;-48
2021/03/15 08:30:20;;;;;;;139.12;65.08;;;;;;;5.71;96.02;99051.94;1828116;77;21387;-48
2021/03/15 08:32:48;;;;;;;178.53;69.85;;;;;;;5.71;96.08;99058.63;1806023;76;21514;-47
2021/03/15 08:35:17;;;;;;;181.80;69.07;;;;;;;5.71;96.13;99051.06;1829885;76;21568;-47
2021/03/15 08:37:55;;;;;;;286.80;84.90;;;;;;;5.71;96.16;99053.27;1827275;76;21374;-46
2021/03/15 08:40:47;;;;;;;245.80;80.38;;;;;;;5.71;96.29;99053.27;1828518;76;21549;-47
2021/03/15 08:43:23;;;;;;;250.82;79.65;;;;;;;5.71;96.40;99059.09;1836280;76;21372;-48
2021/03/15 08:46:04;;;;;;;180.75;70.25;;;;;;;5.71;96.60;99049.73;1831800;77;20998;-50
2021/03/15 08:48:47;;;;;;;177.87;67.62;;;;;;;5.71;96.57;99050.59;1835286;76;20970;-50
2021/03/15 08:51:18;;;;;;;147.60;61.73;;;;;;;5.71;96.63;99051.06;1828721;76;21104;-49
2021/03/15 08:53:51;;;;;;;130.55;59.40;;;;;;;5.72;96.74;99046.98;1824787;76;21524;-53
2021/03/15 08:56:24;;;;;;;137.62;60.12;;;;;;;5.75;96.81;99053.55;1830364;76;21361;-53
2021/03/15 08:58:54;;;;;;;156.07;62.33;;;;;;;5.76;96.77;99051.28;1827102;77;20997;-50
2021/03/15 09:01:24;;;;;;;178.18;65.30;;;;;;;5.76;96.72;99055.28;1832439;76;21574;-52
2021/03/15 09:04:04;;;;;;;152.57;61.98;;;;;;;5.79;96.83;99045.78;1820154;75;22588;-56
2021/03/15 09:06:44;;;;;;;129.00;54.20;;;;;;;5.73;96.86;99049.19;1785702;77;20961;-55
2021/03/15 09:09:16;;;;;;;105.32;50.23;;;;;;;5.72;96.94;99056.34;1781818;79;21376;-57
2021/03/15 09:11:46;;;;;;;109.03;50.55;;;;;;;5.70;97.04;99062.23;1779790;80;20977;-57
2021/03/15 09:14:25;;;;;;;96.80;47.93;;;;;;;5.70;97.17;99060.00;1779845;79;20990;-55
2021/03/15 09:16:57;;;;;;;99.95;46.55;;;;;;;5.69;97.25;99060.47;1778798;80;20994;-57
2021/03/15 09:19:30;;;;;;;186.50;60.05;;;;;;;5.66;97.37;99052.59;1779765;79;20931;-56
2021/03/15 09:22:06;;;;;;;156.80;58.90;;;;;;;5.68;97.56;99055.19;1780779;79;21458;-57
2021/03/15 09:24:40;;;;;;;134.27;52.95;;;;;;;5.71;97.63;99053.27;1781323;79;20998;-57
2021/03/15 09:27:28;;;;;;;117.08;52.95;;;;;;;5.73;97.64;99039.35;1781851;79;20990;-57
2021/03/15 09:30:15;;;;;;;99.25;50.50;;;;;;;5.79;97.58;99048.45;1781911;80;20989;-52
2021/03/15 09:32:49;;;;;;;93.60;46.95;;;;;;;5.85;97.50;99043.78;1780204;79;21525;-52
2021/03/15 09:35:28;;;;;;;88.07;44.90;;;;;;;5.87;97.17;99044.60;1780874;79;21366;-50
2021/03/15 09:38:01;;;;;;;90.03;44.50;;;;;;;5.88;97.05;99038.31;1780423;79;21017;-47
2021/03/15 09:40:46;;;;;;;81.05;42.43;;;;;;;5.91;97.05;99039.50;1781193;79;20982;-49
2021/03/15 09:43:21;;;;;;;83.72;45.17;;;;;;;5.92;96.88;99042.64;1776335;80;20978;-48
2021/03/15 09:46:00;;;;;;;95.03;47.78;;;;;;;5.96;96.91;99048.23;1781067;79;21077;-50
2021/03/15 09:48:30;;;;;;;97.57;49.63;;;;;;;5.99;96.89;99049.45;1777933;80;21435;-53
2021/03/15 09:51:03;;;;;;;109.35;55.63;;;;;;;6.00;96.93;99049.84;1780787;79;21223;-49
2021/03/15 09:53:54;;;;;;;111.10;55.80;;;;;;;6.09;97.06;99044.11;1859184;74;22541;-55
2021/03/15 09:56:24;;;;;;;112.28;55.38;;;;;;;6.07;96.96;99052.66;1834733;75;21723;-57
2021/03/15 09:59:11;;;;;;;107.80;57.03;;;;;;;6.13;97.01;99043.05;1779076;77;23237;-47
2021/03/15 10:01:47;;;;;;;116.82;59.63;;;;;;;6.11;96.93;99048.91;1762255;79;21013;-53
2021/03/15 10:04:37;;;;;;;104.97;52.20;;;;;;;6.14;96.81;99047.45;1758376;79;21377;-53
2021/03/15 10:07:23;;;;;;;107.12;52.88;;;;;;;6.16;96.71;99044.23;1760743;79;21028;-49
2021/03/15 10:10:16;;;;;;;112.40;56.75;;;;;;;6.14;96.58;99048.80;1759813;79;20962;-51
2021/03/15 10:13:04;;;;;;;109.63;55.67;;;;;;;6.12;96.69;99051.13;1758337;79;21740;-52
2021/03/15 10:16:05;;;;;;;112.92;54.95;;;;;;;6.14;96.78;99050.13;1853447;74;23802;-50
2021/03/15 10:18:43;;;;;;;114.70;65.87;;;;;;;6.12;97.09;99054.66;1845179;76;27834;-49
2021/03/15 10:21:12;;;;;;;108.35;56.88;;;;;;;6.11;97.04;99054.27;1773326;75;20914;-52
2021/03/15 10:23:40;;;;;;;117.37;57.83;;;;;;;6.12;96.97;99056.00;1794773;78;21198;-51
2021/03/15 10:26:09;;;;;;;99.90;53.02;;;;;;;6.12;97.07;99058.67;1794516;78;21519;-48
2021/03/15 10:28:42;;;;;;;97.67;48.65;;;;;;;6.12;97.14;99061.36;1794896;78;21026;-48
2021/03/15 10:31:12;;;;;;;98.07;47.58;;;;;;;6.13;97.06;99057.77;1790181;78;21478;-50
2021/03/15 10:33:47;;;;;;;96.75;46.55;;;;;;;6.12;97.00;99064.03;1790004;78;21014;-52
2021/03/15 10:36:19;;;;;;;88.97;47.00;;;;;;;6.09;96.95;99062.84;1792974;78;21040;-49
2021/03/15 10:38:49;;;;;;;92.45;47.90;;;;;;;6.04;96.96;99058.16;1779775;79;21056;-49
2021/03/15 10:41:18;;;;;;;90.77;47.90;;;;;;;6.00;97.08;99059.22;1764195;78;21696;-50
2021/03/15 10:43:46;;;;;;;94.10;48.25;;;;;;;5.98;97.09;99053.08;1790549;79;21499;-55
2021/03/15 10:46:26;;;;;;;103.62;51.55;;;;;;;5.94;97.08;99051.45;1792430;78;20981;-56
2021/03/15 10:48:57;;;;;;;;;;;;;;;5.94;97.09;99048.78;1801927;79;21205;-58
2021/03/15 10:51:25;;;;;;;121.30;53.87;;;;;;;5.93;97.11;99041.69;1820444;76;20248;-57
2021/03/15 10:53:57;;;;;;;111.70;52.67;;;;;;;5.92;97.20;99034.61;1765365;78;21110;-59
2021/03/15 10:56:41;;;;;;;100.60;51.58;;;;;;;6.00;97.25;99032.45;1796727;77;22726;-59
2021/03/15 10:59:31;;;;;;;102.38;52.33;;;;;;;5.97;97.22;99035.28;1750038;79;20990;-56
2021/03/15 11:02:00;;;;;;;97.80;51.58;;;;;;;5.99;97.27;99038.75;1742545;80;21806;-55
2021/03/15 11:04:39;;;;;;;102.97;54.13;;;;;;;6.00;97.22;99037.80;1750235;79;21676;-53
2021/03/15 11:07:30;;;;;;;109.17;52.53;;;;;;;6.01;97.27;99026.16;1792072;77;23365;-55
2021/03/15 11:10:20;;;;;;;110.45;55.30;;;;;;;5.90;97.35;99023.91;1758660;79;20926;-54
2021/03/15 11:13:00;;;;;;;93.87;50.73;;;;;;;5.96;97.78;99026.83;1814340;76;22819;-55
2021/03/15 11:15:36;;;;;;;84.67;43.42;;;;;;;5.88;97.92;99027.61;1810515;77;21052;-52
2021/03/15 11:18:13;;;;;;;73.92;41.25;;;;;;;5.82;98.03;99019.84;1810345;77;21475;-55
2021/03/15 11:20:58;;;;;;;66.53;37.05;;;;;;;5.75;98.11;99022.79;1773362;78;21005;-54
2021/03/15 11:23:41;;;;;;;67.20;36.33;;;;;;;5.76;98.40;99013.82;1809682;77;22571;-53
2021/03/15 11:26:19;;;;;;;75.12;42.38;;;;;;;5.76;98.55;99016.50;1806097;75;22742;-51
2021/03/15 11:28:54;;;;;;;73.17;40.38;;;;;;;5.72;98.72;99014.88;1766136;79;20975;-52
2021/03/15 11:31:27;;;;;;;68.02;37.40;;;;;;;5.74;98.83;99020.16;1730188;80;21516;-51
2021/03/15 11:34:01;;;;;;;67.30;36.25;;;;;;;5.73;98.80;99019.28;1753159;80;21529;-50
2021/03/15 11:36:44;;;;;;;62.20;34.98;;;;;;;5.70;98.87;99006.06;1773699;78;21668;-56
2021/03/15 11:39:13;;;;;;;57.17;30.37;;;;;;;5.68;98.96;99013.26;1739604;79;21458;-51
2021/03/15 11:41:51;;;;;;;61.15;31.87;;;;;;;5.71;99.09;99009.13;1829240;77;22793;-52
2021/03/15 11:44:19;;;;;;;55.88;29.70;;;;;;;5.67;99.13;99013.34;1783702;78;20974;-53
2021/03/15 11:46:47;;;;;;;47.60;27.02;;;;;;;5.67;99.14;99014.20;1783764;78;21380;-55
2021/03/15 11:49:17;;;;;;;44.15;26.65;;;;;;;5.64;99.06;99010.77;1783286;78;21609;-55
2021/03/15 11:51:56;;;;;;;55.43;27.73;;;;;;;5.68;99.20;99022.62;1800986;76;23304;-51
2021/03/15 11:54:36;;;;;;;51.48;26.55;;;;;;;5.65;99.37;99016.08;1810712;78;23440;-52
2021/03/15 11:57:05;;;;;;;45.85;24.43;;;;;;;5.63;99.58;99019.27;1768584;78;20973;-53